sensor_id;sensor_type;location;lat;lon;timestamp;pressure;altitude;pressure_sealevel;temperature;humidity
55916;BME280;41826;53.246;-6.670;2023-05-08T00:01:47;101077.47;;;13.37;100.00
55916;BME280;41826;53.246;-6.670;2023-05-08T00:04:12;101064.00;;;13.49;100.00
55916;BME280;41826;53.246;-6.670;2023-05-08T00:06:38;101068.59;;;13.47;100.00
55916;BME280;41826;53.246;-6.670;2023-05-08T00:09:03;101053.91;;;13.44;100.00
55916;BME280;41826;53.246;-6.670;2023-05-08T00:11:30;101049.13;;;13.39;100.00
55916;BME280;41826;53.246;-6.670;2023-05-08T00:13:55;101042.53;;;13.43;100.00
55916;BME280;41826;53.246;-6.670;2023-05-08T00:16:20;101030.94;;;13.36;100.00
55916;BME280;41826;53.246;-6.670;2023-05-08T00:18:46;101027.66;;;13.34;100.00
55916;BME280;41826;53.246;-6.670;2023-05-08T00:21:11;101016.19;;;13.43;100.00
55916;BME280;41826;53.246;-6.670;2023-05-08T00:23:37;101016.19;;;13.43;100.00
55916;BME280;41826;53.246;-6.670;2023-05-08T00:26:02;101017.94;;;13.35;100.00
55916;BME280;41826;53.246;-6.670;2023-05-08T00:28:27;101009.25;;;13.42;100.00
55916;BME280;41826;53.246;-6.670;2023-05-08T00:30:53;101029.72;;;13.49;100.00
55916;BME280;41826;53.246;-6.670;2023-05-08T00:33:18;101031.91;;;13.53;100.00
55916;BME280;41826;53.246;-6.670;2023-05-08T00:35:44;101037.69;;;13.57;100.00
55916;BME280;41826;53.246;-6.670;2023-05-08T00:38:09;101028.63;;;13.59;100.00
55916;BME280;41826;53.246;-6.670;2023-05-08T00:40:35;101033.19;;;13.49;100.00
55916;BME280;41826;53.246;-6.670;2023-05-08T00:43:01;101037.34;;;13.34;100.00
55916;BME280;41826;53.246;-6.670;2023-05-08T00:45:31;101032.00;;;13.43;100.00
55916;BME280;41826;53.246;-6.670;2023-05-08T00:47:58;101025.94;;;13.51;100.00
55916;BME280;41826;53.246;-6.670;2023-05-08T00:50:24;101019.50;;;13.46;100.00
55916;BME280;41826;53.246;-6.670;2023-05-08T00:52:50;101007.16;;;13.28;100.00
55916;BME280;41826;53.246;-6.670;2023-05-08T00:55:16;101003.63;;;13.37;100.00
55916;BME280;41826;53.246;-6.670;2023-05-08T00:57:45;100989.19;;;13.50;100.00
55916;BME280;41826;53.246;-6.670;2023-05-08T01:00:11;100977.34;;;13.28;100.00
55916;BME280;41826;53.246;-6.670;2023-05-08T01:02:38;100959.72;;;13.28;100.00
55916;BME280;41826;53.246;-6.670;2023-05-08T01:05:05;100946.06;;;13.33;100.00
55916;BME280;41826;53.246;-6.670;2023-05-08T01:07:31;100955.34;;;13.37;100.00
55916;BME280;41826;53.246;-6.670;2023-05-08T01:09:56;100957.22;;;13.53;100.00
55916;BME280;41826;53.246;-6.670;2023-05-08T01:12:37;100953.69;;;13.44;100.00
55916;BME280;41826;53.246;-6.670;2023-05-08T01:15:18;100968.69;;;13.70;100.00
55916;BME280;41826;53.246;-6.670;2023-05-08T01:20:45;100963.81;;;13.57;100.00
55916;BME280;41826;53.246;-6.670;2023-05-08T01:23:46;100969.41;;;13.54;100.00
55916;BME280;41826;53.246;-6.670;2023-05-08T01:34:34;100959.69;;;13.54;100.00
55916;BME280;41826;53.246;-6.670;2023-05-08T01:37:09;100960.59;;;13.63;100.00
55916;BME280;41826;53.246;-6.670;2023-05-08T01:42:17;100953.78;;;13.52;100.00
55916;BME280;41826;53.246;-6.670;2023-05-08T01:44:52;100957.56;;;13.50;100.00
55916;BME280;41826;53.246;-6.670;2023-05-08T01:47:19;100962.81;;;13.50;100.00
55916;BME280;41826;53.246;-6.670;2023-05-08T01:49:48;100959.06;;;13.52;100.00
55916;BME280;41826;53.246;-6.670;2023-05-08T01:52:19;100956.28;;;13.36;100.00
55916;BME280;41826;53.246;-6.670;2023-05-08T01:55:08;100943.88;;;13.54;100.00
55916;BME280;41826;53.246;-6.670;2023-05-08T01:57:38;100949.09;;;13.46;100.00
55916;BME280;41826;53.246;-6.670;2023-05-08T02:00:07;100943.22;;;13.52;100.00
55916;BME280;41826;53.246;-6.670;2023-05-08T02:02:33;100935.34;;;13.60;100.00
55916;BME280;41826;53.246;-6.670;2023-05-08T02:05:02;100948.63;;;13.51;100.00
55916;BME280;41826;53.246;-6.670;2023-05-08T02:07:30;100933.84;;;13.58;100.00
55916;BME280;41826;53.246;-6.670;2023-05-08T02:10:01;100929.72;;;13.55;100.00
55916;BME280;41826;53.246;-6.670;2023-05-08T02:12:28;100931.53;;;13.55;100.00
55916;BME280;41826;53.246;-6.670;2023-05-08T02:14:55;100927.22;;;13.54;100.00
55916;BME280;41826;53.246;-6.670;2023-05-08T02:17:22;100915.03;;;13.53;100.00
55916;BME280;41826;53.246;-6.670;2023-05-08T02:19:49;100911.59;;;13.60;100.00
55916;BME280;41826;53.246;-6.670;2023-05-08T02:22:15;100915.88;;;13.61;100.00
55916;BME280;41826;53.246;-6.670;2023-05-08T02:24:42;100914.38;;;13.59;100.00
55916;BME280;41826;53.246;-6.670;2023-05-08T02:27:11;100916.53;;;13.55;100.00
55916;BME280;41826;53.246;-6.670;2023-05-08T02:29:37;100910.28;;;13.64;100.00
55916;BME280;41826;53.246;-6.670;2023-05-08T02:32:04;100904.16;;;13.56;100.00
55916;BME280;41826;53.246;-6.670;2023-05-08T02:34:31;100898.66;;;13.49;100.00
55916;BME280;41826;53.246;-6.670;2023-05-08T02:36:58;100891.66;;;13.58;100.00
55916;BME280;41826;53.246;-6.670;2023-05-08T02:39:29;100896.25;;;13.56;100.00
55916;BME280;41826;53.246;-6.670;2023-05-08T02:41:55;100885.91;;;13.62;100.00
55916;BME280;41826;53.246;-6.670;2023-05-08T02:44:21;100897.25;;;13.55;100.00
55916;BME280;41826;53.246;-6.670;2023-05-08T02:47:23;100887.34;;;13.57;100.00
55916;BME280;41826;53.246;-6.670;2023-05-08T02:52:43;100883.69;;;13.50;100.00
55916;BME280;41826;53.246;-6.670;2023-05-08T02:57:56;100868.16;;;13.47;100.00
55916;BME280;41826;53.246;-6.670;2023-05-08T03:00:31;100872.13;;;13.42;100.00
55916;BME280;41826;53.246;-6.670;2023-05-08T03:03:24;100861.59;;;13.51;100.00
55916;BME280;41826;53.246;-6.670;2023-05-08T03:05:53;100860.59;;;13.52;100.00
55916;BME280;41826;53.246;-6.670;2023-05-08T03:08:25;100854.00;;;13.48;100.00
55916;BME280;41826;53.246;-6.670;2023-05-08T03:10:56;100858.81;;;13.52;100.00
55916;BME280;41826;53.246;-6.670;2023-05-08T03:13:22;100854.84;;;13.48;100.00
55916;BME280;41826;53.246;-6.670;2023-05-08T03:16:03;100869.03;;;13.55;100.00
55916;BME280;41826;53.246;-6.670;2023-05-08T03:18:35;100866.41;;;13.55;100.00
55916;BME280;41826;53.246;-6.670;2023-05-08T03:21:07;100864.09;;;13.52;100.00
55916;BME280;41826;53.246;-6.670;2023-05-08T03:23:35;100864.19;;;13.34;100.00
55916;BME280;41826;53.246;-6.670;2023-05-08T03:26:03;100866.31;;;13.39;100.00
55916;BME280;41826;53.246;-6.670;2023-05-08T03:28:30;100868.13;;;13.38;100.00
55916;BME280;41826;53.246;-6.670;2023-05-08T03:30:57;100884.66;;;13.49;100.00
55916;BME280;41826;53.246;-6.670;2023-05-08T03:33:25;100882.00;;;13.40;100.00
55916;BME280;41826;53.246;-6.670;2023-05-08T03:35:52;100883.69;;;13.50;100.00
55916;BME280;41826;53.246;-6.670;2023-05-08T03:38:18;100894.25;;;13.50;100.00
55916;BME280;41826;53.246;-6.670;2023-05-08T03:40:43;100894.69;;;13.37;100.00
55916;BME280;41826;53.246;-6.670;2023-05-08T03:43:10;100897.16;;;13.38;100.00
55916;BME280;41826;53.246;-6.670;2023-05-08T03:45:38;100898.50;;;13.42;100.00
55916;BME280;41826;53.246;-6.670;2023-05-08T03:48:05;100895.53;;;13.46;100.00
55916;BME280;41826;53.246;-6.670;2023-05-08T03:50:34;100898.84;;;13.48;100.00
55916;BME280;41826;53.246;-6.670;2023-05-08T03:53:00;100897.16;;;13.38;100.00
55916;BME280;41826;53.246;-6.670;2023-05-08T03:55:26;100897.50;;;13.43;100.00
55916;BME280;41826;53.246;-6.670;2023-05-08T03:58:23;100888.06;;;13.33;100.00
55916;BME280;41826;53.246;-6.670;2023-05-08T04:03:51;100884.63;;;13.40;100.00
55916;BME280;41826;53.246;-6.670;2023-05-08T04:06:28;100882.00;;;13.40;100.00
55916;BME280;41826;53.246;-6.670;2023-05-08T04:11:31;100879.34;;;13.40;100.00
55916;BME280;41826;53.246;-6.670;2023-05-08T04:14:03;100874.09;;;13.40;100.00
55916;BME280;41826;53.246;-6.670;2023-05-08T04:16:36;100880.53;;;13.46;100.00
55916;BME280;41826;53.246;-6.670;2023-05-08T04:19:08;100874.78;;;13.51;100.00
55916;BME280;41826;53.246;-6.670;2023-05-08T04:21:35;100880.22;;;13.49;100.00
55916;BME280;41826;53.246;-6.670;2023-05-08T04:24:03;100884.06;;;13.55;100.00
55916;BME280;41826;53.246;-6.670;2023-05-08T04:26:32;100876.94;;;13.47;100.00
55916;BME280;41826;53.246;-6.670;2023-05-08T04:28:58;100869.38;;;13.52;100.00
55916;BME280;41826;53.246;-6.670;2023-05-08T04:31:24;100869.19;;;13.54;100.00
55916;BME280;41826;53.246;-6.670;2023-05-08T04:33:51;100873.50;;;13.55;100.00
55916;BME280;41826;53.246;-6.670;2023-05-08T04:36:17;100883.06;;;13.56;100.00
55916;BME280;41826;53.246;-6.670;2023-05-08T04:38:43;100885.72;;;13.64;100.00
55916;BME280;41826;53.246;-6.670;2023-05-08T04:41:08;100894.63;;;13.63;100.00
55916;BME280;41826;53.246;-6.670;2023-05-08T04:43:35;100883.72;;;13.58;100.00
55916;BME280;41826;53.246;-6.670;2023-05-08T04:46:00;100878.72;;;13.47;100.00
55916;BME280;41826;53.246;-6.670;2023-05-08T04:48:26;100878.22;;;13.43;100.00
55916;BME280;41826;53.246;-6.670;2023-05-08T04:50:51;100872.13;;;13.42;100.00
55916;BME280;41826;53.246;-6.670;2023-05-08T04:53:17;100869.88;;;13.56;100.00
55916;BME280;41826;53.246;-6.670;2023-05-08T04:55:42;100867.56;;;13.53;100.00
55916;BME280;41826;53.246;-6.670;2023-05-08T04:58:09;100869.06;;;13.63;100.00
55916;BME280;41826;53.246;-6.670;2023-05-08T05:00:35;100865.59;;;13.55;100.00
55916;BME280;41826;53.246;-6.670;2023-05-08T05:03:00;100872.94;;;13.43;100.00
55916;BME280;41826;53.246;-6.670;2023-05-08T05:05:26;100863.88;;;13.46;100.00
55916;BME280;41826;53.246;-6.670;2023-05-08T05:07:51;100853.50;;;13.44;100.00
55916;BME280;41826;53.246;-6.670;2023-05-08T05:10:17;100840.97;;;13.46;100.00
55916;BME280;41826;53.246;-6.670;2023-05-08T05:12:42;100828.13;;;13.51;100.00
55916;BME280;41826;53.246;-6.670;2023-05-08T05:15:08;100828.97;;;13.52;100.00
55916;BME280;41826;53.246;-6.670;2023-05-08T05:17:34;100821.72;;;13.54;100.00
55916;BME280;41826;53.246;-6.670;2023-05-08T05:19:59;100815.78;;;13.52;100.00
55916;BME280;41826;53.246;-6.670;2023-05-08T05:22:24;100811.16;;;13.46;100.00
55916;BME280;41826;53.246;-6.670;2023-05-08T05:24:50;100793.81;;;13.35;100.00
55916;BME280;41826;53.246;-6.670;2023-05-08T05:27:15;100787.75;;;13.42;100.00
55916;BME280;41826;53.246;-6.670;2023-05-08T05:29:41;100774.56;;;13.51;100.00
55916;BME280;41826;53.246;-6.670;2023-05-08T05:32:07;100775.59;;;13.58;100.00
55916;BME280;41826;53.246;-6.670;2023-05-08T05:34:34;100786.13;;;13.58;100.00
55916;BME280;41826;53.246;-6.670;2023-05-08T05:36:59;100797.84;;;13.55;100.00
55916;BME280;41826;53.246;-6.670;2023-05-08T05:39:25;100792.34;;;13.49;100.00
55916;BME280;41826;53.246;-6.670;2023-05-08T05:41:50;100791.38;;;13.50;100.00
55916;BME280;41826;53.246;-6.670;2023-05-08T05:44:16;100790.19;;;13.44;100.00
55916;BME280;41826;53.246;-6.670;2023-05-08T05:46:42;100789.25;;;13.53;100.00
55916;BME280;41826;53.246;-6.670;2023-05-08T05:49:07;100779.38;;;13.63;100.00
55916;BME280;41826;53.246;-6.670;2023-05-08T05:51:33;100789.13;;;13.63;100.00
55916;BME280;41826;53.246;-6.670;2023-05-08T05:53:58;100787.50;;;13.70;100.00
55916;BME280;41826;53.246;-6.670;2023-05-08T05:56:24;100796.69;;;13.58;100.00
55916;BME280;41826;53.246;-6.670;2023-05-08T05:58:49;100796.00;;;13.56;100.00
55916;BME280;41826;53.246;-6.670;2023-05-08T06:01:15;100798.31;;;13.59;100.00
55916;BME280;41826;53.246;-6.670;2023-05-08T06:03:40;100796.34;;;13.61;100.00
55916;BME280;41826;53.246;-6.670;2023-05-08T06:06:06;100789.28;;;13.70;100.00
55916;BME280;41826;53.246;-6.670;2023-05-08T06:08:31;100787.16;;;13.65;100.00
55916;BME280;41826;53.246;-6.670;2023-05-08T06:10:57;100798.38;;;13.75;100.00
55916;BME280;41826;53.246;-6.670;2023-05-08T06:13:22;100795.75;;;13.75;100.00
55916;BME280;41826;53.246;-6.670;2023-05-08T06:15:48;100805.63;;;13.81;100.00
55916;BME280;41826;53.246;-6.670;2023-05-08T06:18:14;100805.97;;;13.70;100.00
55916;BME280;41826;53.246;-6.670;2023-05-08T06:20:40;100809.44;;;13.79;100.00
55916;BME280;41826;53.246;-6.670;2023-05-08T06:23:05;100814.84;;;13.77;100.00
55916;BME280;41826;53.246;-6.670;2023-05-08T06:25:31;100806.16;;;13.85;100.00
55916;BME280;41826;53.246;-6.670;2023-05-08T06:27:56;100809.56;;;13.77;100.00
55916;BME280;41826;53.246;-6.670;2023-05-08T06:30:22;100807.31;;;13.91;100.00
55916;BME280;41826;53.246;-6.670;2023-05-08T06:32:47;100812.59;;;13.91;100.00
55916;BME280;41826;53.246;-6.670;2023-05-08T06:35:13;100814.91;;;13.85;100.00
55916;BME280;41826;53.246;-6.670;2023-05-08T06:37:43;100811.91;;;13.88;100.00
55916;BME280;41826;53.246;-6.670;2023-05-08T06:40:09;100808.47;;;13.88;100.00
55916;BME280;41826;53.246;-6.670;2023-05-08T06:42:35;100806.66;;;13.88;100.00
55916;BME280;41826;53.246;-6.670;2023-05-08T06:45:01;100808.63;;;13.95;100.00
55916;BME280;41826;53.246;-6.670;2023-05-08T06:47:26;100818.22;;;13.96;100.00
55916;BME280;41826;53.246;-6.670;2023-05-08T06:49:51;100818.38;;;14.02;100.00
55916;BME280;41826;53.246;-6.670;2023-05-08T06:52:18;100820.19;;;14.02;100.00
55916;BME280;41826;53.246;-6.670;2023-05-08T06:54:44;100830.41;;;14.05;100.00
55916;BME280;41826;53.246;-6.670;2023-05-08T06:57:11;100817.41;;;14.03;100.00
55916;BME280;41826;53.246;-6.670;2023-05-08T06:59:39;100815.72;;;14.02;100.00
55916;BME280;41826;53.246;-6.670;2023-05-08T07:02:04;100812.78;;;14.05;100.00
55916;BME280;41826;53.246;-6.670;2023-05-08T07:04:30;100810.97;;;14.06;100.00
55916;BME280;41826;53.246;-6.670;2023-05-08T07:06:55;100802.22;;;14.05;100.00
55916;BME280;41826;53.246;-6.670;2023-05-08T07:09:21;100793.16;;;14.16;100.00
55916;BME280;41826;53.246;-6.670;2023-05-08T07:11:46;100802.06;;;14.23;100.00
55916;BME280;41826;53.246;-6.670;2023-05-08T07:14:12;100809.47;;;14.20;100.00
55916;BME280;41826;53.246;-6.670;2023-05-08T07:16:38;100805.69;;;14.22;100.00
55916;BME280;41826;53.246;-6.670;2023-05-08T07:19:03;100806.00;;;14.27;100.00
55916;BME280;41826;53.246;-6.670;2023-05-08T07:21:28;100797.94;;;14.29;100.00
55916;BME280;41826;53.246;-6.670;2023-05-08T07:23:54;100798.09;;;14.27;100.00
55916;BME280;41826;53.246;-6.670;2023-05-08T07:26:20;100807.53;;;14.38;100.00
55916;BME280;41826;53.246;-6.670;2023-05-08T07:28:46;100809.50;;;14.44;100.00
55916;BME280;41826;53.246;-6.670;2023-05-08T07:31:12;100823.84;;;14.58;100.00
55916;BME280;41826;53.246;-6.670;2023-05-08T07:33:37;100829.00;;;14.60;100.00
55916;BME280;41826;53.246;-6.670;2023-05-08T07:36:03;100832.78;;;14.49;100.00
55916;BME280;41826;53.246;-6.670;2023-05-08T07:38:28;100834.06;;;14.45;100.00
55916;BME280;41826;53.246;-6.670;2023-05-08T07:40:54;100829.63;;;14.37;100.00
55916;BME280;41826;53.246;-6.670;2023-05-08T07:43:24;100826.81;;;14.47;100.00
55916;BME280;41826;53.246;-6.670;2023-05-08T07:45:49;100829.94;;;14.50;100.00
55916;BME280;41826;53.246;-6.670;2023-05-08T07:48:15;100833.91;;;14.46;100.00
55916;BME280;41826;53.246;-6.670;2023-05-08T07:50:40;100826.00;;;14.46;100.00
55916;BME280;41826;53.246;-6.670;2023-05-08T07:53:06;100829.16;;;14.66;100.00
55916;BME280;41826;53.246;-6.670;2023-05-08T07:55:31;100829.47;;;14.80;100.00
55916;BME280;41826;53.246;-6.670;2023-05-08T07:57:57;100839.38;;;14.69;100.00
55916;BME280;41826;53.246;-6.670;2023-05-08T08:00:23;100844.00;;;14.67;100.00
55916;BME280;41826;53.246;-6.670;2023-05-08T08:02:48;100849.28;;;14.84;100.00
55916;BME280;41826;53.246;-6.670;2023-05-08T08:05:14;100854.56;;;14.92;100.00
55916;BME280;41826;53.246;-6.670;2023-05-08T08:07:39;100858.50;;;14.96;100.00
55916;BME280;41826;53.246;-6.670;2023-05-08T08:10:05;100862.16;;;14.95;100.00
55916;BME280;41826;53.246;-6.670;2023-05-08T08:12:31;100862.47;;;15.00;100.00
55916;BME280;41826;53.246;-6.670;2023-05-08T08:14:56;100860.63;;;15.09;100.00
55916;BME280;41826;53.246;-6.670;2023-05-08T08:17:22;100858.66;;;15.03;100.00
55916;BME280;41826;53.246;-6.670;2023-05-08T08:19:47;100852.88;;;15.07;100.00
55916;BME280;41826;53.246;-6.670;2023-05-08T08:22:13;100853.84;;;15.14;100.00
55916;BME280;41826;53.246;-6.670;2023-05-08T08:24:39;100858.44;;;15.21;100.00
55916;BME280;41826;53.246;-6.670;2023-05-08T08:27:04;100849.94;;;14.94;100.00
55916;BME280;41826;53.246;-6.670;2023-05-08T08:29:30;100841.47;;;15.07;100.00
55916;BME280;41826;53.246;-6.670;2023-05-08T08:31:55;100842.22;;;15.24;100.00
55916;BME280;41826;53.246;-6.670;2023-05-08T08:34:21;100849.13;;;15.41;100.00
55916;BME280;41826;53.246;-6.670;2023-05-08T08:36:47;100893.75;;;15.52;100.00
55916;BME280;41826;53.246;-6.670;2023-05-08T08:39:13;100937.88;;;15.60;100.00
55916;BME280;41826;53.246;-6.670;2023-05-08T08:41:38;100949.44;;;15.59;100.00
55916;BME280;41826;53.246;-6.670;2023-05-08T08:44:04;100941.41;;;15.36;100.00
55916;BME280;41826;53.246;-6.670;2023-05-08T08:46:30;100928.34;;;15.26;100.00
55916;BME280;41826;53.246;-6.670;2023-05-08T08:48:57;100907.69;;;15.30;100.00
55916;BME280;41826;53.246;-6.670;2023-05-08T08:51:40;100889.13;;;15.46;100.00
55916;BME280;41826;53.246;-6.670;2023-05-08T08:54:09;100888.78;;;15.49;100.00
55916;BME280;41826;53.246;-6.670;2023-05-08T08:56:37;100892.78;;;15.45;100.00
55916;BME280;41826;53.246;-6.670;2023-05-08T08:59:05;100886.47;;;15.46;100.00
55916;BME280;41826;53.246;-6.670;2023-05-08T09:01:34;100885.94;;;15.59;100.00
55916;BME280;41826;53.246;-6.670;2023-05-08T09:04:02;100892.78;;;15.45;100.00
55916;BME280;41826;53.246;-6.670;2023-05-08T09:06:28;100890.78;;;15.39;100.00
55916;BME280;41826;53.246;-6.670;2023-05-08T09:08:57;100910.09;;;15.56;100.00
55916;BME280;41826;53.246;-6.670;2023-05-08T09:11:27;100930.44;;;15.55;100.00
55916;BME280;41826;53.246;-6.670;2023-05-08T09:13:53;100933.31;;;15.37;100.00
55916;BME280;41826;53.246;-6.670;2023-05-08T09:16:24;100932.28;;;15.47;100.00
55916;BME280;41826;53.246;-6.670;2023-05-08T09:18:52;100965.81;;;15.54;100.00
55916;BME280;41826;53.246;-6.670;2023-05-08T09:21:17;100985.34;;;15.53;100.00
55916;BME280;41826;53.246;-6.670;2023-05-08T09:24:03;100979.72;;;15.73;100.00
55916;BME280;41826;53.246;-6.670;2023-05-08T09:26:33;100995.19;;;15.92;100.00
55916;BME280;41826;53.246;-6.670;2023-05-08T09:29:17;101005.03;;;16.15;100.00
55916;BME280;41826;53.246;-6.670;2023-05-08T09:31:47;100999.66;;;16.31;100.00
55916;BME280;41826;53.246;-6.670;2023-05-08T09:34:25;101029.84;;;16.53;100.00
55916;BME280;41826;53.246;-6.670;2023-05-08T09:36:53;101094.25;;;16.62;100.00
55916;BME280;41826;53.246;-6.670;2023-05-08T09:39:24;101082.06;;;16.76;100.00
55916;BME280;41826;53.246;-6.670;2023-05-08T09:42:01;101099.34;;;16.63;100.00
55916;BME280;41826;53.246;-6.670;2023-05-08T09:44:27;101117.09;;;16.63;100.00
55916;BME280;41826;53.246;-6.670;2023-05-08T09:47:12;101136.75;;;16.77;100.00
55916;BME280;41826;53.246;-6.670;2023-05-08T09:49:38;101161.44;;;16.85;100.00
55916;BME280;41826;53.246;-6.670;2023-05-08T09:52:05;101155.63;;;16.90;100.00
55916;BME280;41826;53.246;-6.670;2023-05-08T09:54:31;101149.53;;;16.81;100.00
55916;BME280;41826;53.246;-6.670;2023-05-08T09:56:57;101141.88;;;16.86;100.00
55916;BME280;41826;53.246;-6.670;2023-05-08T09:59:26;101125.13;;;16.86;100.00
55916;BME280;41826;53.246;-6.670;2023-05-08T10:01:53;101120.91;;;16.60;100.00
55916;BME280;41826;53.246;-6.670;2023-05-08T10:04:37;101096.84;;;16.78;100.00
55916;BME280;41826;53.246;-6.670;2023-05-08T10:07:03;101082.38;;;16.89;100.00
55916;BME280;41826;53.246;-6.670;2023-05-08T10:09:28;101128.81;;;17.08;100.00
55916;BME280;41826;53.246;-6.670;2023-05-08T10:11:54;101123.44;;;17.16;100.00
55916;BME280;41826;53.246;-6.670;2023-05-08T10:14:23;101163.53;;;17.29;100.00
55916;BME280;41826;53.246;-6.670;2023-05-08T10:16:50;101179.84;;;17.41;100.00
55916;BME280;41826;53.246;-6.670;2023-05-08T10:19:24;101203.63;;;17.58;100.00
55916;BME280;41826;53.246;-6.670;2023-05-08T10:21:54;101204.91;;;17.62;100.00
55916;BME280;41826;53.246;-6.670;2023-05-08T10:24:40;101200.38;;;17.70;100.00
55916;BME280;41826;53.246;-6.670;2023-05-08T10:27:22;101204.69;;;17.71;100.00
55916;BME280;41826;53.246;-6.670;2023-05-08T10:29:56;101202.31;;;17.76;100.00
55916;BME280;41826;53.246;-6.670;2023-05-08T10:32:25;101205.59;;;17.87;100.00
55916;BME280;41826;53.246;-6.670;2023-05-08T10:34:55;101216.56;;;17.84;100.00
55916;BME280;41826;53.246;-6.670;2023-05-08T10:37:22;101231.91;;;17.96;100.00
55916;BME280;41826;53.246;-6.670;2023-05-08T10:39:48;101240.47;;;17.84;100.00
55916;BME280;41826;53.246;-6.670;2023-05-08T10:42:14;101249.69;;;17.96;100.00
55916;BME280;41826;53.246;-6.670;2023-05-08T10:44:39;101248.81;;;18.18;100.00
55916;BME280;41826;53.246;-6.670;2023-05-08T10:53:06;101260.97;;;18.36;100.00
55916;BME280;41826;53.246;-6.670;2023-05-08T10:55:37;101255.63;;;18.21;100.00
55916;BME280;41826;53.246;-6.670;2023-05-08T11:03:15;101247.94;;;18.41;100.00
55916;BME280;41826;53.246;-6.670;2023-05-08T11:05:48;101250.41;;;18.42;100.00
55916;BME280;41826;53.246;-6.670;2023-05-08T11:08:18;101238.50;;;18.53;100.00
55916;BME280;41826;53.246;-6.670;2023-05-08T11:10:49;101211.84;;;18.61;100.00
55916;BME280;41826;53.246;-6.670;2023-05-08T11:13:16;101207.72;;;18.74;100.00
55916;BME280;41826;53.246;-6.670;2023-05-08T11:15:48;101198.00;;;18.81;100.00
55916;BME280;41826;53.246;-6.670;2023-05-08T11:18:16;101203.22;;;18.89;100.00
55916;BME280;41826;53.246;-6.670;2023-05-08T11:20:57;101198.00;;;18.81;100.00
55916;BME280;41826;53.246;-6.670;2023-05-08T11:23:27;101198.34;;;18.93;100.00
55916;BME280;41826;53.246;-6.670;2023-05-08T11:26:11;101202.94;;;18.69;100.00
55916;BME280;41826;53.246;-6.670;2023-05-08T11:28:55;101202.13;;;18.83;100.00
55916;BME280;41826;53.246;-6.670;2023-05-08T11:31:21;101204.69;;;18.92;100.00
55916;BME280;41826;53.246;-6.670;2023-05-08T11:33:47;101204.03;;;19.04;100.00
55916;BME280;41826;53.246;-6.670;2023-05-08T11:36:16;101186.50;;;18.95;100.00
55916;BME280;41826;53.246;-6.670;2023-05-08T11:39:07;101178.13;;;19.13;100.00
55916;BME280;41826;53.246;-6.670;2023-05-08T11:41:33;101151.66;;;18.60;100.00
55916;BME280;41826;53.246;-6.670;2023-05-08T11:46:37;101082.34;;;18.77;100.00
55916;BME280;41826;53.246;-6.670;2023-05-08T11:49:04;101020.53;;;18.96;100.00
55916;BME280;41826;53.246;-6.670;2023-05-08T11:51:31;99904.06;;;18.97;100.00
55916;BME280;41826;53.246;-6.670;2023-05-08T11:53:58;99832.91;;;19.11;100.00
55916;BME280;41826;53.246;-6.670;2023-05-08T11:56:23;99653.91;;;19.22;100.00
55916;BME280;41826;53.246;-6.670;2023-05-08T11:59:09;99626.81;;;19.55;100.00
55916;BME280;41826;53.246;-6.670;2023-05-08T12:01:34;99562.44;;;19.35;100.00
55916;BME280;41826;53.246;-6.670;2023-05-08T12:04:04;99547.75;;;19.32;100.00
55916;BME280;41826;53.246;-6.670;2023-05-08T12:06:30;99493.47;;;19.45;100.00
55916;BME280;41826;53.246;-6.670;2023-05-08T12:08:56;99480.84;;;19.40;100.00
55916;BME280;41826;53.246;-6.670;2023-05-08T12:11:23;99526.91;;;19.41;100.00
55916;BME280;41826;53.246;-6.670;2023-05-08T12:13:53;99506.66;;;19.40;100.00
55916;BME280;41826;53.246;-6.670;2023-05-08T12:16:19;99507.94;;;19.37;100.00
55916;BME280;41826;53.246;-6.670;2023-05-08T12:18:49;99548.09;;;19.47;100.00
55916;BME280;41826;53.246;-6.670;2023-05-08T12:21:15;99540.34;;;19.04;100.00
55916;BME280;41826;53.246;-6.670;2023-05-08T12:23:40;99576.72;;;19.10;100.00
55916;BME280;41826;53.246;-6.670;2023-05-08T12:26:07;99607.25;;;19.08;100.00
55916;BME280;41826;53.246;-6.670;2023-05-08T12:28:32;99586.09;;;18.64;100.00
55916;BME280;41826;53.246;-6.670;2023-05-08T12:30:58;99586.47;;;18.49;100.00
55916;BME280;41826;53.246;-6.670;2023-05-08T12:33:24;99637.34;;;18.71;100.00
55916;BME280;41826;53.246;-6.670;2023-05-08T12:35:50;99677.88;;;19.03;100.00
55916;BME280;41826;53.246;-6.670;2023-05-08T12:38:15;99683.28;;;19.45;100.00
55916;BME280;41826;53.246;-6.670;2023-05-08T12:40:41;99666.91;;;19.30;100.00
55916;BME280;41826;53.246;-6.670;2023-05-08T12:43:07;99652.59;;;19.13;100.00
55916;BME280;41826;53.246;-6.670;2023-05-08T12:45:36;99544.06;;;19.03;100.00
55916;BME280;41826;53.246;-6.670;2023-05-08T12:48:05;99509.19;;;19.23;100.00
55916;BME280;41826;53.246;-6.670;2023-05-08T12:50:36;99439.66;;;19.19;100.00
55916;BME280;41826;53.246;-6.670;2023-05-08T12:53:03;99565.97;;;19.82;100.00
55916;BME280;41826;53.246;-6.670;2023-05-08T12:55:30;99491.03;;;19.43;100.00
55916;BME280;41826;53.246;-6.670;2023-05-08T13:00:42;99465.00;;;19.45;100.00
55916;BME280;41826;53.246;-6.670;2023-05-08T13:03:09;99491.03;;;19.55;100.00
55916;BME280;41826;53.246;-6.670;2023-05-08T13:05:37;99525.09;;;19.77;100.00
55916;BME280;41826;53.246;-6.670;2023-05-08T13:08:06;99562.72;;;20.04;100.00
55916;BME280;41826;53.246;-6.670;2023-05-08T13:13:13;99494.88;;;19.83;100.00
55916;BME280;41826;53.246;-6.670;2023-05-08T13:15:38;99539.41;;;19.64;100.00
55916;BME280;41826;53.246;-6.670;2023-05-08T13:18:04;99493.69;;;19.20;100.00
55916;BME280;41826;53.246;-6.670;2023-05-08T13:20:31;99551.38;;;19.08;100.00